createdAt,value
2023-01-13T00:01:11.371Z,9.27
2023-01-13T00:03:21.000Z,6.60
2023-01-13T00:05:29.471Z,6.73
2023-01-13T00:07:38.443Z,5.20
2023-01-13T00:09:46.931Z,6.60
2023-01-13T00:11:57.371Z,12.77
2023-01-13T00:14:05.870Z,8.27
2023-01-13T00:16:15.559Z,9.27
2023-01-13T00:18:24.474Z,4.47
2023-01-13T00:20:33.034Z,7.43
2023-01-13T00:22:41.507Z,6.10
2023-01-13T00:24:49.979Z,7.07
2023-01-13T00:26:59.978Z,6.03
2023-01-13T00:29:08.534Z,4.03
2023-01-13T00:31:18.011Z,4.70
2023-01-13T00:33:26.937Z,3.57
2023-01-13T00:35:35.513Z,4.73
2023-01-13T00:37:44.019Z,5.17
2023-01-13T00:39:53.046Z,10.67
2023-01-13T00:42:20.444Z,7.47
2023-01-13T00:44:28.943Z,6.67
2023-01-13T00:46:37.497Z,7.37
2023-01-13T00:48:45.993Z,5.87
2023-01-13T00:50:58.335Z,5.03
2023-01-13T00:53:06.925Z,4.63
2023-01-13T00:55:15.530Z,6.10
2023-01-13T00:57:25.461Z,9.67
2023-01-13T00:59:33.947Z,5.97
2023-01-13T01:01:43.694Z,5.40
2023-01-13T01:03:52.815Z,5.60
2023-01-13T01:06:06.394Z,4.13
2023-01-13T01:08:14.971Z,7.23
2023-01-13T01:10:23.449Z,7.53
2023-01-13T01:12:33.631Z,5.73
2023-01-13T01:14:42.127Z,5.67
2023-01-13T01:16:50.717Z,8.53
2023-01-13T01:18:59.481Z,5.80
2023-01-13T01:21:08.613Z,5.13
2023-01-13T01:23:17.073Z,10.10
2023-01-13T01:25:25.604Z,6.87
2023-01-13T01:27:35.461Z,7.93
2023-01-13T01:29:44.046Z,4.13
2023-01-13T01:31:52.487Z,4.13
2023-01-13T01:34:01.357Z,8.17
2023-01-13T01:36:10.930Z,5.80
2023-01-13T01:38:21.285Z,3.50
2023-01-13T01:40:29.962Z,3.43
2023-01-13T01:42:57.660Z,9.77
2023-01-13T01:45:14.107Z,5.13
2023-01-13T01:47:23.626Z,7.03
2023-01-13T01:49:33.476Z,8.07
2023-01-13T01:51:44.053Z,3.93
2023-01-13T01:53:52.973Z,6.00
2023-01-13T01:56:01.696Z,10.27
2023-01-13T01:58:13.126Z,4.37
2023-01-13T02:00:21.905Z,2.30
2023-01-13T02:02:30.743Z,4.73
2023-01-13T02:04:42.474Z,6.10
2023-01-13T02:06:51.751Z,6.43
2023-01-13T02:09:00.994Z,4.17
2023-01-13T02:11:30.738Z,4.73
2023-01-13T02:13:39.618Z,4.77
2023-01-13T02:15:52.662Z,5.93
2023-01-13T02:18:16.045Z,11.30
2023-01-13T02:20:37.595Z,4.73
2023-01-13T02:23:06.204Z,7.37
2023-01-13T02:25:24.386Z,9.60
2023-01-13T02:27:49.902Z,3.97
2023-01-13T02:30:32.491Z,6.33
2023-01-13T02:32:44.478Z,6.27
2023-01-13T02:34:57.392Z,6.17
2023-01-13T02:37:08.978Z,4.43
2023-01-13T02:39:20.958Z,5.67
2023-01-13T02:41:48.745Z,8.13
2023-01-13T02:44:08.418Z,3.00
2023-01-13T02:46:19.855Z,6.13
2023-01-13T02:48:30.238Z,5.90
2023-01-13T02:50:39.368Z,3.47
2023-01-13T02:52:49.905Z,5.17
2023-01-13T02:55:00.912Z,5.00
2023-01-13T02:57:11.934Z,6.07
2023-01-13T02:59:21.480Z,3.23
2023-01-13T03:01:31.518Z,8.70
2023-01-13T03:03:40.186Z,4.27
2023-01-13T03:05:50.029Z,5.87
2023-01-13T03:08:04.645Z,5.33
2023-01-13T03:10:17.101Z,6.93
2023-01-13T03:12:30.605Z,5.30
2023-01-13T03:14:43.820Z,4.17
2023-01-13T03:17:04.473Z,3.90
2023-01-13T03:19:18.116Z,4.23
2023-01-13T03:21:30.623Z,9.83
2023-01-13T03:23:41.561Z,3.70
2023-01-13T03:25:52.699Z,4.60
2023-01-13T03:28:04.384Z,7.50
2023-01-13T03:30:17.860Z,6.07
2023-01-13T03:32:29.033Z,3.53
2023-01-13T03:34:40.629Z,6.00
2023-01-13T03:36:51.269Z,4.10
2023-01-13T03:39:02.773Z,3.37
2023-01-13T03:41:12.688Z,6.83
2023-01-13T03:43:43.665Z,5.87
2023-01-13T03:45:55.166Z,6.43
2023-01-13T03:48:06.478Z,7.70
2023-01-13T03:50:16.883Z,3.40
2023-01-13T03:52:27.112Z,3.87
2023-01-13T03:54:38.324Z,6.67
2023-01-13T03:56:48.148Z,8.73
2023-01-13T03:58:57.096Z,3.77
2023-01-13T04:01:07.794Z,6.20
2023-01-13T04:03:22.520Z,3.87
2023-01-13T04:05:31.444Z,5.40
2023-01-13T04:07:43.833Z,7.10
2023-01-13T04:09:53.423Z,4.77
2023-01-13T04:12:03.644Z,6.27
2023-01-13T04:14:13.463Z,8.53
2023-01-13T04:16:22.005Z,8.10
2023-01-13T04:18:32.769Z,6.80
2023-01-13T04:20:41.577Z,7.10
2023-01-13T04:22:50.050Z,5.53
2023-01-13T04:24:58.509Z,9.13
2023-01-13T04:27:07.376Z,7.93
2023-01-13T04:29:15.975Z,8.10
2023-01-13T04:31:24.620Z,4.93
2023-01-13T04:33:34.536Z,10.13
2023-01-13T04:35:43.443Z,5.77
2023-01-13T04:37:51.851Z,6.07
2023-01-13T04:40:00.337Z,8.07
2023-01-13T04:42:08.904Z,7.17
2023-01-13T04:44:17.457Z,6.03
2023-01-13T04:46:25.930Z,5.50
2023-01-13T04:48:35.990Z,7.57
2023-01-13T04:50:44.543Z,5.20
2023-01-13T04:52:53.589Z,6.33
2023-01-13T04:55:02.047Z,8.47
2023-01-13T04:57:10.559Z,7.20
2023-01-13T04:59:19.122Z,4.40
2023-01-13T05:01:27.728Z,9.27
2023-01-13T05:03:37.797Z,4.13
2023-01-13T05:05:46.359Z,4.73
2023-01-13T05:07:54.941Z,6.87
2023-01-13T05:10:03.419Z,6.53
2023-01-13T05:12:29.934Z,5.77
2023-01-13T05:14:56.322Z,6.77
2023-01-13T05:17:04.908Z,8.33
2023-01-13T05:19:14.856Z,5.40
2023-01-13T05:21:40.900Z,6.27
2023-01-13T05:24:07.037Z,4.30
2023-01-13T05:26:15.502Z,5.30
2023-01-13T05:28:23.967Z,4.43
2023-01-13T05:30:33.624Z,6.00
2023-01-13T05:32:42.206Z,5.27
2023-01-13T05:34:52.089Z,6.20
2023-01-13T05:37:00.699Z,4.23
2023-01-13T05:39:09.344Z,3.77
2023-01-13T05:41:35.236Z,5.33
2023-01-13T05:43:43.059Z,4.27
2023-01-13T05:45:52.389Z,5.20
2023-01-13T05:48:00.973Z,6.73
2023-01-13T05:50:11.700Z,4.13
2023-01-13T05:52:20.196Z,7.33
2023-01-13T05:54:28.692Z,5.30
2023-01-13T05:56:37.270Z,8.27
2023-01-13T05:58:45.915Z,6.10
2023-01-13T06:00:54.849Z,4.17
2023-01-13T06:03:03.619Z,7.43
2023-01-13T06:05:13.785Z,5.97
2023-01-13T06:07:22.247Z,6.37
2023-01-13T06:09:30.685Z,7.67
2023-01-13T06:11:39.186Z,4.07
2023-01-13T06:13:47.712Z,3.20
2023-01-13T06:15:58.781Z,5.20
2023-01-13T06:18:07.413Z,3.63
2023-01-13T06:20:17.698Z,4.90
2023-01-13T06:22:28.636Z,5.07
2023-01-13T06:24:37.923Z,4.20
2023-01-13T06:26:46.394Z,6.30
2023-01-13T06:28:54.900Z,4.20
2023-01-13T06:31:04.902Z,6.10
2023-01-13T06:33:15.505Z,5.57
2023-01-13T06:35:27.637Z,5.27
2023-01-13T06:37:36.625Z,3.60
2023-01-13T06:39:45.157Z,7.50
2023-01-13T06:42:12.297Z,5.07
2023-01-13T06:44:21.525Z,4.93
2023-01-13T06:46:30.059Z,7.77
2023-01-13T06:48:38.579Z,6.37
2023-01-13T06:50:48.444Z,5.97
2023-01-13T06:52:56.993Z,7.47
2023-01-13T06:55:05.766Z,10.67
2023-01-13T06:57:14.157Z,5.77
2023-01-13T06:59:23.117Z,5.37
2023-01-13T07:01:32.127Z,6.60
2023-01-13T07:03:41.949Z,7.70
2023-01-13T07:05:55.308Z,5.30
2023-01-13T07:08:03.779Z,7.07
2023-01-13T07:10:14.192Z,4.63
2023-01-13T07:12:22.716Z,6.80
2023-01-13T07:14:48.655Z,6.90
2023-01-13T07:16:57.096Z,7.23
2023-01-13T07:19:05.580Z,6.60
2023-01-13T07:21:18.915Z,5.03
2023-01-13T07:23:27.741Z,5.07
2023-01-13T07:25:36.269Z,6.23
2023-01-13T07:27:44.667Z,4.17
2023-01-13T07:29:53.147Z,6.00
2023-01-13T07:32:01.699Z,6.23
2023-01-13T07:34:10.344Z,5.87
2023-01-13T07:36:20.238Z,3.83
2023-01-13T07:38:28.756Z,4.70
2023-01-13T07:40:37.226Z,4.67
2023-01-13T07:43:03.641Z,7.80
2023-01-13T07:45:12.975Z,2.83
2023-01-13T07:47:23.324Z,6.27
2023-01-13T07:49:31.778Z,5.17
2023-01-13T07:51:41.877Z,3.77
2023-01-13T07:53:50.434Z,6.47
2023-01-13T07:55:59.252Z,7.07
2023-01-13T07:58:07.934Z,5.60
2023-01-13T08:00:16.983Z,5.50
2023-01-13T08:02:25.589Z,5.73
2023-01-13T08:04:34.153Z,4.97
2023-01-13T08:06:44.028Z,10.03
2023-01-13T08:08:52.598Z,4.33
2023-01-13T08:11:01.417Z,4.57
2023-01-13T08:13:18.461Z,5.30
2023-01-13T08:15:26.981Z,2.27
2023-01-13T08:17:35.457Z,5.80
2023-01-13T08:19:43.990Z,4.83
2023-01-13T08:21:53.863Z,5.47
2023-01-13T08:24:02.345Z,4.47
2023-01-13T08:26:11.637Z,6.20
2023-01-13T08:28:20.202Z,8.37
2023-01-13T08:30:28.826Z,4.20
2023-01-13T08:32:37.387Z,5.27
2023-01-13T08:34:46.013Z,5.77
2023-01-13T08:36:55.886Z,5.60
2023-01-13T08:39:04.546Z,7.10
2023-01-13T08:41:13.349Z,1.67
2023-01-13T08:43:21.777Z,3.30
2023-01-13T08:45:30.324Z,6.27
2023-01-13T08:47:39.036Z,3.33
2023-01-13T08:49:47.515Z,4.53
2023-01-13T08:51:57.389Z,3.23
2023-01-13T08:54:06.031Z,2.87
2023-01-13T08:56:15.334Z,2.20
2023-01-13T08:58:23.865Z,4.87
2023-01-13T09:00:32.321Z,4.53
2023-01-13T09:02:40.804Z,4.30
2023-01-13T09:04:49.376Z,4.37
2023-01-13T09:06:59.308Z,3.17
2023-01-13T09:09:07.903Z,8.07
2023-01-13T09:11:32.554Z,5.13
2023-01-13T09:13:41.019Z,5.70
2023-01-13T09:15:49.675Z,4.47
2023-01-13T09:17:58.259Z,5.13
2023-01-13T09:20:07.348Z,2.63
2023-01-13T09:22:18.292Z,4.33
2023-01-13T09:24:27.198Z,2.67
2023-01-13T09:26:35.824Z,5.10
2023-01-13T09:28:44.229Z,3.40
2023-01-13T09:30:52.871Z,6.93
2023-01-13T09:33:19.353Z,3.17
2023-01-13T09:35:27.803Z,4.43
2023-01-13T09:37:39.305Z,2.93
2023-01-13T09:39:47.741Z,1.83
2023-01-13T09:42:15.460Z,3.30
2023-01-13T09:44:27.655Z,3.67
2023-01-13T09:46:55.130Z,2.63
2023-01-13T09:49:04.363Z,2.17
2023-01-13T09:51:16.843Z,2.27
2023-01-13T09:53:28.449Z,2.17
2023-01-13T09:55:37.626Z,2.70
2023-01-13T09:57:46.323Z,2.60
2023-01-13T09:59:54.840Z,1.70
2023-01-13T10:02:06.737Z,1.10
2023-01-13T10:04:16.465Z,0.70
2023-01-13T10:06:30.136Z,4.70
2023-01-13T10:08:40.670Z,1.43
2023-01-13T10:10:50.621Z,2.10
2023-01-13T10:13:16.579Z,1.43
2023-01-13T10:15:27.768Z,1.53
2023-01-13T10:17:43.002Z,1.33
2023-01-13T10:19:53.449Z,2.97
2023-01-13T10:22:13.081Z,0.80
2023-01-13T10:24:27.080Z,0.67
2023-01-13T10:26:41.843Z,1.87
2023-01-13T10:28:53.839Z,0.30
2023-01-13T10:31:02.473Z,0.73
2023-01-13T10:33:14.817Z,0.53
2023-01-13T10:35:38.149Z,1.87
2023-01-13T10:37:57.356Z,1.33
2023-01-13T10:40:14.073Z,1.47
2023-01-13T10:42:23.940Z,0.80
2023-01-13T10:44:32.399Z,1.97
2023-01-13T10:46:52.922Z,1.03
2023-01-13T10:49:02.076Z,1.37
2023-01-13T10:51:19.991Z,0.67
2023-01-13T10:53:31.040Z,0.60
2023-01-13T10:55:41.403Z,0.70
2023-01-13T10:57:49.924Z,0.70
2023-01-13T10:59:58.758Z,3.03
2023-01-13T11:02:26.515Z,0.90
2023-01-13T11:04:37.236Z,1.00
2023-01-13T11:06:47.275Z,1.30
2023-01-13T11:08:58.388Z,1.83
2023-01-13T11:11:26.364Z,1.27
2023-01-13T11:13:59.335Z,1.50
2023-01-13T11:16:13.019Z,1.90
2023-01-13T11:18:25.872Z,2.70
2023-01-13T11:20:37.014Z,2.77
2023-01-13T11:22:47.708Z,2.67
2023-01-13T11:24:58.148Z,2.63
2023-01-13T11:27:14.177Z,5.27
2023-01-13T11:29:25.323Z,4.53
2023-01-13T11:31:35.337Z,4.80
2023-01-13T11:33:46.102Z,4.17
2023-01-13T11:36:00.937Z,5.23
2023-01-13T11:38:13.532Z,4.07
2023-01-13T11:40:26.822Z,5.03
2023-01-13T11:42:38.772Z,4.83
2023-01-13T11:44:51.712Z,6.00
2023-01-13T11:47:00.274Z,3.47
2023-01-13T11:49:08.914Z,3.93
2023-01-13T11:51:24.899Z,4.20
2023-01-13T11:53:44.354Z,5.93
2023-01-13T11:55:58.308Z,6.03
2023-01-13T11:58:18.966Z,5.33
2023-01-13T12:00:37.169Z,6.20
2023-01-13T12:02:51.477Z,4.63
2023-01-13T12:05:04.320Z,7.63
2023-01-13T12:07:21.434Z,5.40
2023-01-13T12:09:35.616Z,5.73
2023-01-13T12:12:07.398Z,7.07
2023-01-13T12:14:22.024Z,6.03
2023-01-13T12:16:31.584Z,6.73
2023-01-13T12:18:50.120Z,5.67
2023-01-13T12:21:03.880Z,9.37
2023-01-13T12:23:17.679Z,8.00
2023-01-13T12:25:29.929Z,9.20
2023-01-13T12:27:42.314Z,5.53
2023-01-13T12:29:55.396Z,5.30
2023-01-13T12:32:05.770Z,3.97
2023-01-13T12:34:22.243Z,4.67
2023-01-13T12:36:33.707Z,2.50
2023-01-13T12:38:47.750Z,2.60
2023-01-13T12:40:58.114Z,5.73
2023-01-13T12:43:30.942Z,5.37
2023-01-13T12:45:40.937Z,3.30
2023-01-13T12:47:49.599Z,5.77
2023-01-13T12:50:20.939Z,3.13
2023-01-13T12:52:34.400Z,9.30
2023-01-13T12:55:01.553Z,8.73
2023-01-13T12:57:16.631Z,8.60
2023-01-13T12:59:49.144Z,5.73
2023-01-13T13:02:12.988Z,6.60
2023-01-13T13:04:23.767Z,6.43
2023-01-13T13:06:33.215Z,6.50
2023-01-13T13:08:46.664Z,4.60
2023-01-13T13:11:01.062Z,6.60
2023-01-13T13:13:18.366Z,3.67
2023-01-13T13:15:27.389Z,4.93
2023-01-13T13:17:45.981Z,7.43
2023-01-13T13:19:56.015Z,8.37
2023-01-13T13:22:31.788Z,6.33
2023-01-13T13:24:41.163Z,9.40
2023-01-13T13:26:49.949Z,8.67
2023-01-13T13:29:09.209Z,5.63
2023-01-13T13:31:23.097Z,6.53
2023-01-13T13:33:46.320Z,4.60
2023-01-13T13:36:02.653Z,5.93
2023-01-13T13:38:37.722Z,7.83
2023-01-13T13:41:05.951Z,9.57
2023-01-13T13:43:34.171Z,8.67
2023-01-13T13:46:14.347Z,13.87
2023-01-13T13:48:24.375Z,7.43
2023-01-13T13:50:35.164Z,7.53
2023-01-13T13:52:51.598Z,8.40
2023-01-13T13:55:02.442Z,8.83
2023-01-13T13:57:16.565Z,11.20
2023-01-13T13:59:26.532Z,6.97
2023-01-13T14:01:38.644Z,7.60
2023-01-13T14:03:47.367Z,8.13
2023-01-13T14:05:57.255Z,9.77
2023-01-13T14:08:12.368Z,6.97
2023-01-13T14:10:22.478Z,9.57
2023-01-13T14:12:31.027Z,6.87
2023-01-13T14:14:44.737Z,8.07
2023-01-13T14:16:55.058Z,6.67
2023-01-13T14:19:03.568Z,6.80
2023-01-13T14:21:20.361Z,8.73
2023-01-13T14:23:32.370Z,14.70
2023-01-13T14:25:47.737Z,8.53
2023-01-13T14:27:57.020Z,9.03
2023-01-13T14:30:06.149Z,10.73
2023-01-13T14:32:17.030Z,7.60
2023-01-13T14:34:32.949Z,8.97
2023-01-13T14:36:42.804Z,9.33
2023-01-13T14:39:14.821Z,8.63
2023-01-13T14:41:27.402Z,10.23
2023-01-13T14:43:35.968Z,6.53
2023-01-13T14:45:54.833Z,9.10
2023-01-13T14:48:03.583Z,8.80
2023-01-13T14:50:19.068Z,17.47
2023-01-13T14:52:28.995Z,7.43
2023-01-13T14:54:45.094Z,11.60
2023-01-13T14:57:09.091Z,6.80
2023-01-13T14:59:36.869Z,7.17
2023-01-13T15:01:45.410Z,9.07
2023-01-13T15:03:53.887Z,8.97
2023-01-13T15:06:02.492Z,11.10
2023-01-13T15:08:30.514Z,13.40
2023-01-13T15:10:42.066Z,10.63
2023-01-13T15:12:53.423Z,14.53
2023-01-13T15:15:02.082Z,10.30
2023-01-13T15:17:15.799Z,9.90
2023-01-13T15:19:24.457Z,9.57
2023-01-13T15:21:32.919Z,11.27
2023-01-13T15:23:41.557Z,12.30
2023-01-13T15:25:50.358Z,6.53
2023-01-13T15:28:00.499Z,7.93
2023-01-13T15:30:15.271Z,9.67
2023-01-13T15:32:23.905Z,14.00
2023-01-13T15:34:32.516Z,13.60
2023-01-13T15:36:41.628Z,10.23
2023-01-13T15:38:50.173Z,11.77
2023-01-13T15:40:58.618Z,10.13
2023-01-13T15:43:26.508Z,9.27
2023-01-13T15:45:53.398Z,9.03
2023-01-13T15:48:01.867Z,11.13
2023-01-13T15:50:15.145Z,16.90
2023-01-13T15:52:24.400Z,12.13
2023-01-13T15:54:33.049Z,18.80
2023-01-13T15:56:42.197Z,13.07
2023-01-13T15:58:52.132Z,17.43
2023-01-13T16:01:00.908Z,13.77
2023-01-13T16:03:13.338Z,15.97
2023-01-13T16:05:21.875Z,15.80
2023-01-13T16:07:30.470Z,21.30
2023-01-13T16:09:38.931Z,17.20
2023-01-13T16:11:47.415Z,16.27
2023-01-13T16:13:57.308Z,12.60
2023-01-13T16:16:06.311Z,21.13
2023-01-13T16:18:17.795Z,9.07
2023-01-13T16:20:26.379Z,24.03
2023-01-13T16:22:34.849Z,17.13
2023-01-13T16:24:43.415Z,13.47
2023-01-13T16:26:51.996Z,17.57
2023-01-13T16:29:01.818Z,15.80
2023-01-13T16:31:17.370Z,14.60
2023-01-13T16:33:26.048Z,17.93
2023-01-13T16:35:35.415Z,12.67
2023-01-13T16:37:45.260Z,15.03
2023-01-13T16:39:53.974Z,19.10
2023-01-13T16:42:02.512Z,13.33
2023-01-13T16:44:12.566Z,17.60
2023-01-13T16:46:22.763Z,13.93
2023-01-13T16:48:31.236Z,20.93
2023-01-13T16:50:41.726Z,17.93
2023-01-13T16:52:50.515Z,20.80
2023-01-13T16:55:00.836Z,16.97
2023-01-13T16:57:10.890Z,19.23
2023-01-13T16:59:21.548Z,17.80
2023-01-13T17:01:31.268Z,15.67
2023-01-13T17:03:39.919Z,25.67
2023-01-13T17:05:48.782Z,22.77
2023-01-13T17:07:57.677Z,19.87
2023-01-13T17:10:06.734Z,21.20
2023-01-13T17:12:15.318Z,20.23
2023-01-13T17:14:25.763Z,23.87
2023-01-13T17:16:34.622Z,20.40
2023-01-13T17:18:44.005Z,16.17
2023-01-13T17:20:52.769Z,26.40
2023-01-13T17:23:01.377Z,14.07
2023-01-13T17:25:11.478Z,20.73
2023-01-13T17:27:21.427Z,18.17
2023-01-13T17:29:33.327Z,18.13
2023-01-13T17:31:42.112Z,19.03
2023-01-13T17:33:51.171Z,19.90
2023-01-13T17:36:00.190Z,22.23
2023-01-13T17:38:08.757Z,14.50
2023-01-13T17:40:17.478Z,21.73
2023-01-13T17:42:28.454Z,13.77
2023-01-13T17:44:38.781Z,26.37
2023-01-13T17:46:47.685Z,21.57
2023-01-13T17:48:56.494Z,19.83
2023-01-13T17:51:07.204Z,18.83
2023-01-13T17:53:15.668Z,19.90
2023-01-13T17:55:24.177Z,23.63
2023-01-13T17:57:32.692Z,17.13
2023-01-13T17:59:42.688Z,27.13
2023-01-13T18:01:51.304Z,16.43
2023-01-13T18:03:59.906Z,21.33
2023-01-13T18:06:09.572Z,22.60
2023-01-13T18:08:18.685Z,23.57
2023-01-13T18:10:27.336Z,15.97
2023-01-13T18:12:36.204Z,21.37
2023-01-13T18:14:46.148Z,27.33
2023-01-13T18:16:54.750Z,23.33
2023-01-13T18:19:20.803Z,20.47
2023-01-13T18:21:46.674Z,22.13
2023-01-13T18:24:12.970Z,23.23
2023-01-13T18:26:39.783Z,24.27
2023-01-13T18:28:48.328Z,16.07
2023-01-13T18:30:58.330Z,17.33
2023-01-13T18:33:06.981Z,17.87
2023-01-13T18:35:15.659Z,33.37
2023-01-13T18:37:24.218Z,19.83
2023-01-13T18:39:33.012Z,23.97
2023-01-13T18:41:59.276Z,21.40
2023-01-13T18:44:07.818Z,22.73
2023-01-13T18:46:17.754Z,18.83
2023-01-13T18:48:26.253Z,19.20
2023-01-13T18:50:35.840Z,22.60
2023-01-13T18:52:44.293Z,25.20
2023-01-13T18:54:52.856Z,25.23
2023-01-13T18:57:02.823Z,28.93
2023-01-13T18:59:11.304Z,27.70
2023-01-13T19:01:22.670Z,23.53
2023-01-13T19:03:31.267Z,24.47
2023-01-13T19:05:39.864Z,26.53
2023-01-13T19:07:51.056Z,30.17
2023-01-13T19:10:00.380Z,23.97
2023-01-13T19:12:12.042Z,23.13
2023-01-13T19:14:34.829Z,27.10
2023-01-13T19:16:44.836Z,20.37
2023-01-13T19:18:53.319Z,25.53
2023-01-13T19:21:04.825Z,18.97
2023-01-13T19:23:13.659Z,29.20
2023-01-13T19:25:22.329Z,17.00
2023-01-13T19:27:31.019Z,28.13
2023-01-13T19:29:44.535Z,27.70
2023-01-13T19:32:01.264Z,23.43
2023-01-13T19:34:09.865Z,24.30
2023-01-13T19:36:18.415Z,23.80
2023-01-13T19:38:27.767Z,18.80
2023-01-13T19:40:36.284Z,24.93
2023-01-13T19:43:02.333Z,26.37
2023-01-13T19:45:29.407Z,32.57
2023-01-13T19:47:40.715Z,26.63
2023-01-13T19:49:49.552Z,24.67
2023-01-13T19:51:58.164Z,20.07
2023-01-13T19:54:06.823Z,27.80
2023-01-13T19:56:15.806Z,18.13
2023-01-13T19:58:25.882Z,29.90
2023-01-13T20:00:34.963Z,40.73
2023-01-13T20:02:49.632Z,25.33
2023-01-13T20:04:59.120Z,31.23
2023-01-13T20:07:08.105Z,31.00
2023-01-13T20:09:16.579Z,31.87
2023-01-13T20:11:31.021Z,24.30
2023-01-13T20:13:39.601Z,32.90
2023-01-13T20:15:48.160Z,25.60
2023-01-13T20:17:58.554Z,19.47
2023-01-13T20:20:07.355Z,23.47
2023-01-13T20:22:16.335Z,20.07
2023-01-13T20:24:26.166Z,26.67
2023-01-13T20:26:34.684Z,23.40
2023-01-13T20:28:43.209Z,24.60
2023-01-13T20:30:51.754Z,18.57
2023-01-13T20:33:01.851Z,22.13
2023-01-13T20:35:10.644Z,25.17
2023-01-13T20:37:19.171Z,22.13
2023-01-13T20:39:27.863Z,25.77
2023-01-13T20:41:53.883Z,25.40
2023-01-13T20:44:02.474Z,24.17
2023-01-13T20:46:10.984Z,21.97
2023-01-13T20:48:20.927Z,17.10
2023-01-13T20:50:29.473Z,13.57
2023-01-13T20:52:38.107Z,19.40
2023-01-13T20:54:46.566Z,16.87
2023-01-13T20:56:55.294Z,17.80
2023-01-13T20:59:03.821Z,26.10
2023-01-13T21:01:12.529Z,23.77
2023-01-13T21:03:22.569Z,25.73
2023-01-13T21:05:31.012Z,19.23
2023-01-13T21:07:39.491Z,15.37
2023-01-13T21:09:47.913Z,22.30
2023-01-13T21:12:14.337Z,19.03
2023-01-13T21:14:41.437Z,19.23
2023-01-13T21:16:49.870Z,19.67
2023-01-13T21:19:07.645Z,17.97
2023-01-13T21:21:16.606Z,23.40
2023-01-13T21:23:25.152Z,14.70
2023-01-13T21:25:35.384Z,12.43
2023-01-13T21:27:44.498Z,23.53
2023-01-13T21:29:53.044Z,19.43
2023-01-13T21:32:02.711Z,19.90
2023-01-13T21:34:12.738Z,14.30
2023-01-13T21:36:21.416Z,17.50
2023-01-13T21:38:30.400Z,17.00
2023-01-13T21:40:38.920Z,22.47
2023-01-13T21:43:05.095Z,16.40
2023-01-13T21:45:31.490Z,20.03
2023-01-13T21:47:52.162Z,18.67
2023-01-13T21:50:02.096Z,16.07
2023-01-13T21:52:10.563Z,18.20
2023-01-13T21:54:19.046Z,16.50
2023-01-13T21:56:27.720Z,16.83
2023-01-13T21:58:37.313Z,23.53
2023-01-13T22:00:46.379Z,24.90
2023-01-13T22:02:58.536Z,21.47
2023-01-13T22:05:09.528Z,16.27
2023-01-13T22:07:18.049Z,17.23
2023-01-13T22:09:26.617Z,24.50
2023-01-13T22:11:35.131Z,13.23
2023-01-13T22:14:01.187Z,18.13
2023-01-13T22:16:10.248Z,13.53
2023-01-13T22:18:19.167Z,16.20
2023-01-13T22:20:29.282Z,19.80
2023-01-13T22:22:37.936Z,14.47
2023-01-13T22:24:47.395Z,20.60
2023-01-13T22:26:55.941Z,16.77
2023-01-13T22:29:04.514Z,17.80
2023-01-13T22:31:14.304Z,20.63
2023-01-13T22:33:22.824Z,10.07
2023-01-13T22:35:32.710Z,15.80
2023-01-13T22:37:41.286Z,16.27
2023-01-13T22:39:50.111Z,15.83
2023-01-13T22:41:58.583Z,18.30
2023-01-13T22:44:07.238Z,12.20
2023-01-13T22:46:16.084Z,18.83
2023-01-13T22:48:24.621Z,14.17
2023-01-13T22:50:34.528Z,15.23
2023-01-13T22:52:42.999Z,13.50
2023-01-13T22:54:51.451Z,15.07
2023-01-13T22:56:59.894Z,9.23
2023-01-13T22:59:09.663Z,13.00
2023-01-13T23:01:19.300Z,11.20
2023-01-13T23:03:27.849Z,12.80
2023-01-13T23:05:37.979Z,12.17
2023-01-13T23:07:46.544Z,18.30
2023-01-13T23:09:55.127Z,21.23
2023-01-13T23:12:03.654Z,15.80
2023-01-13T23:14:13.591Z,16.43
2023-01-13T23:16:23.352Z,12.63
2023-01-13T23:18:31.973Z,9.93
2023-01-13T23:20:41.898Z,13.93
2023-01-13T23:22:50.376Z,13.83
2023-01-13T23:24:58.975Z,9.50
2023-01-13T23:27:07.459Z,12.70
2023-01-13T23:29:16.100Z,13.60
2023-01-13T23:31:24.645Z,12.17
2023-01-13T23:33:33.180Z,12.67
2023-01-13T23:35:43.122Z,14.33
2023-01-13T23:37:52.824Z,12.87
2023-01-13T23:40:01.435Z,10.53
2023-01-13T23:42:09.926Z,15.97
2023-01-13T23:44:18.449Z,12.63
2023-01-13T23:46:27.166Z,15.33
2023-01-13T23:48:36.111Z,14.40
2023-01-13T23:50:46.077Z,13.30
2023-01-13T23:52:54.546Z,15.53
2023-01-13T23:55:03.260Z,19.10
2023-01-13T23:57:11.785Z,13.03
2023-01-13T23:59:20.656Z,13.23
